Time;durP1;ratioP1;P1;durP2;ratioP2;P2;SDS_P1;SDS_P2;PMS_P1;PMS_P2;Temp;Humidity;BMP_temperature;BMP_pressure;BME280_temperature;BME280_humidity;BME280_pressure;Samples;Min_cycle;Max_cycle;Signal;HPM_P1;HPM_P2
2022/08/07 00:02:25;;;;;;;1.90;1.80;;;16.70;57.10;;;;;;5095499;28;20449;-81
2022/08/07 00:04:52;;;;;;;2.10;2.00;;;16.70;57.10;;;;;;5094802;28;20503;-81
2022/08/07 00:07:19;;;;;;;2.00;1.83;;;16.80;57.40;;;;;;5096932;28;20469;-81
2022/08/07 00:09:45;;;;;;;2.07;1.97;;;16.70;57.50;;;;;;5102064;28;20455;-81
2022/08/07 00:12:12;;;;;;;2.23;2.00;;;16.70;57.30;;;;;;5095424;28;20453;-81
2022/08/07 00:14:40;;;;;;;1.70;1.60;;;16.70;57.40;;;;;;5094997;28;20444;-79
2022/08/07 00:17:07;;;;;;;2.70;1.87;;;16.80;57.30;;;;;;5094713;28;20505;-81
2022/08/07 00:19:34;;;;;;;1.90;1.80;;;16.70;57.60;;;;;;5095021;28;20475;-81
2022/08/07 00:22:01;;;;;;;2.97;1.70;;;16.70;57.70;;;;;;5095086;28;20476;-81
2022/08/07 00:24:28;;;;;;;1.67;1.57;;;16.80;57.80;;;;;;5093983;28;20477;-80
2022/08/07 00:26:54;;;;;;;1.93;1.83;;;16.80;57.50;;;;;;5094491;28;20535;-80
2022/08/07 00:29:25;;;;;;;1.60;1.50;;;16.80;57.60;;;;;;5094242;28;20453;-80
2022/08/07 00:31:54;;;;;;;2.33;2.13;;;16.80;57.60;;;;;;5095040;28;20457;-80
2022/08/07 00:34:21;;;;;;;3.73;1.87;;;16.80;57.40;;;;;;5093958;28;20862;-81
2022/08/07 00:36:47;;;;;;;1.83;1.73;;;16.70;57.70;;;;;;5094478;28;20500;-80
2022/08/07 00:39:14;;;;;;;1.73;1.53;;;16.70;57.90;;;;;;5094518;28;20900;-80
2022/08/07 00:41:48;;;;;;;2.23;2.03;;;16.60;58.00;;;;;;5094713;28;20455;-80
2022/08/07 00:44:15;;;;;;;1.57;1.47;;;16.60;58.20;;;;;;5093839;28;20444;-80
2022/08/07 00:46:42;;;;;;;1.70;1.60;;;16.50;58.00;;;;;;5094203;28;20473;-80
2022/08/07 00:49:10;;;;;;;2.67;1.80;;;16.50;58.20;;;;;;5094324;28;21012;-80
2022/08/07 00:51:37;;;;;;;2.27;2.07;;;16.30;58.80;;;;;;5094585;28;20452;-81
2022/08/07 00:54:04;;;;;;;3.03;2.70;;;16.30;59.10;;;;;;5093980;28;20523;-80
2022/08/07 00:56:31;;;;;;;1.90;1.80;;;16.40;59.50;;;;;;5093786;28;20487;-80
2022/08/07 00:58:58;;;;;;;1.90;1.80;;;16.40;59.10;;;;;;5094896;28;20953;-81
2022/08/07 01:01:25;;;;;;;1.60;1.50;;;16.40;59.30;;;;;;5107342;28;20479;-80
2022/08/07 01:03:53;;;;;;;2.90;2.07;;;16.30;59.40;;;;;;5094474;28;20780;-80
2022/08/07 01:06:21;;;;;;;2.57;2.37;;;16.10;60.10;;;;;;5096221;28;20838;-79
2022/08/07 01:08:48;;;;;;;1.57;1.50;;;16.00;60.20;;;;;;5098349;28;20516;-79
2022/08/07 01:11:16;;;;;;;3.30;1.50;;;15.90;60.50;;;;;;5097373;28;20515;-79
2022/08/07 01:13:43;;;;;;;1.80;1.70;;;15.90;60.90;;;;;;5098057;28;20441;-79
2022/08/07 01:16:10;;;;;;;1.70;1.60;;;15.90;60.80;;;;;;5097936;28;20502;-79
2022/08/07 01:18:37;;;;;;;2.17;2.07;;;15.90;60.10;;;;;;5095923;28;20543;-80
2022/08/07 01:21:11;;;;;;;1.60;1.50;;;15.80;60.60;;;;;;5094162;28;20546;-79
2022/08/07 01:23:40;;;;;;;1.83;1.73;;;15.70;60.60;;;;;;5093778;28;20457;-79
2022/08/07 01:26:08;;;;;;;1.77;1.67;;;15.60;61.00;;;;;;5093113;28;20480;-80
2022/08/07 01:28:35;;;;;;;2.40;1.87;;;15.60;61.40;;;;;;5093641;28;20945;-80
2022/08/07 01:31:02;;;;;;;1.80;1.40;;;15.60;61.60;;;;;;5094117;28;20458;-79
2022/08/07 01:33:30;;;;;;;1.70;1.60;;;15.60;61.60;;;;;;5092524;28;20538;-79
2022/08/07 01:35:59;;;;;;;2.00;1.90;;;15.60;61.90;;;;;;5093000;28;20487;-79
2022/08/07 01:38:27;;;;;;;1.63;1.50;;;15.60;62.20;;;;;;5093528;28;20456;-80
2022/08/07 01:40:56;;;;;;;1.80;1.70;;;15.60;63.10;;;;;;5093444;28;20448;-80
2022/08/07 01:43:23;;;;;;;1.80;1.70;;;15.50;63.20;;;;;;5093036;28;21139;-80
2022/08/07 01:45:51;;;;;;;1.60;1.50;;;15.60;63.00;;;;;;5093376;28;20445;-79
2022/08/07 01:48:18;;;;;;;2.00;1.77;;;15.60;62.70;;;;;;5093793;28;20459;-79
2022/08/07 01:50:49;;;;;;;1.97;1.87;;;15.70;62.60;;;;;;5093962;28;20451;-80
2022/08/07 01:53:19;;;;;;;1.80;1.70;;;15.70;62.80;;;;;;5099127;28;20815;-80
2022/08/07 01:55:51;;;;;;;1.80;1.70;;;15.70;62.80;;;;;;5094784;28;20801;-79
2022/08/07 01:58:22;;;;;;;1.80;1.70;;;15.70;62.80;;;;;;5095340;28;20446;-80
2022/08/07 02:00:54;;;;;;;2.80;1.67;;;15.60;62.90;;;;;;5093991;28;20452;-80
2022/08/07 02:03:23;;;;;;;1.90;1.80;;;15.60;63.10;;;;;;5092965;28;20457;-79
2022/08/07 02:05:54;;;;;;;3.53;1.80;;;15.60;63.00;;;;;;5093154;28;20532;-80
2022/08/07 02:19:47;;;;;;;2.30;1.93;;;15.60;63.70;;;;;;5108085;28;20485;-81
2022/08/07 02:22:18;;;;;;;1.77;1.67;;;15.50;64.20;;;;;;5104500;28;20439;-81
2022/08/07 02:25:26;;;;;;;1.40;1.30;;;15.50;65.10;;;;;;5107297;28;20447;-81
2022/08/07 02:31:37;;;;;;;4.43;2.57;;;15.40;65.70;;;;;;4995955;28;20436;-81
2022/08/07 03:42:13;;;;;;;2.10;2.00;;;14.80;78.10;;;;;;4784980;30;20455;-81
2022/08/07 03:44:40;;;;;;;3.20;2.10;;;14.60;80.30;;;;;;4790826;30;20474;-80
2022/08/07 03:47:08;;;;;;;2.33;1.60;;;14.60;81.30;;;;;;4882978;28;20460;-80
2022/08/07 03:49:35;;;;;;;2.40;1.90;;;14.70;81.30;;;;;;5081004;28;20879;-82
2022/08/07 03:52:03;;;;;;;2.00;1.90;;;14.80;81.50;;;;;;5111442;28;20433;-82
2022/08/07 03:54:32;;;;;;;2.40;2.30;;;14.70;82.50;;;;;;5111845;28;20451;-82
2022/08/07 03:56:59;;;;;;;1.93;1.83;;;14.60;83.70;;;;;;5112215;28;20511;-82
2022/08/07 03:59:27;;;;;;;2.43;2.33;;;14.60;84.70;;;;;;5111960;28;20447;-82
2022/08/07 04:01:56;;;;;;;2.10;1.93;;;14.60;85.60;;;;;;5111592;28;20454;-82
2022/08/07 04:04:23;;;;;;;2.27;2.17;;;14.60;86.40;;;;;;5111487;28;20464;-82
2022/08/07 04:06:50;;;;;;;2.20;2.00;;;14.50;87.20;;;;;;5110890;28;20526;-82
2022/08/07 04:09:17;;;;;;;1.87;1.77;;;14.50;88.30;;;;;;5111047;28;20449;-82
2022/08/07 04:11:46;;;;;;;2.10;2.00;;;14.40;89.60;;;;;;5110486;28;20474;-81
2022/08/07 04:14:13;;;;;;;2.40;2.30;;;14.40;90.00;;;;;;5110223;28;20453;-82
2022/08/07 04:16:40;;;;;;;2.20;2.10;;;14.40;90.40;;;;;;5110520;28;20493;-82
2022/08/07 04:19:07;;;;;;;3.33;2.43;;;14.40;90.90;;;;;;5109644;28;20896;-82
2022/08/07 04:21:34;;;;;;;2.63;2.43;;;14.50;91.00;;;;;;5110129;28;20456;-82
2022/08/07 04:24:02;;;;;;;2.50;2.30;;;14.50;91.30;;;;;;5109928;28;20522;-82
2022/08/07 04:26:29;;;;;;;2.33;2.13;;;14.60;91.80;;;;;;5108699;28;20514;-82
2022/08/07 04:28:57;;;;;;;2.63;2.50;;;14.70;91.50;;;;;;5110433;28;20448;-82
2022/08/07 04:31:24;;;;;;;1.93;1.83;;;14.70;91.60;;;;;;5109778;28;20449;-82
2022/08/07 04:33:51;;;;;;;6.03;2.80;;;14.80;91.80;;;;;;5110289;28;20442;-82
2022/08/07 04:36:18;;;;;;;2.10;2.00;;;14.80;91.80;;;;;;5109077;28;20475;-82
2022/08/07 04:38:45;;;;;;;2.13;2.03;;;14.80;92.10;;;;;;5111225;28;20448;-81
2022/08/07 04:41:12;;;;;;;4.70;2.83;;;14.70;92.30;;;;;;5113548;28;20443;-82
2022/08/07 04:43:42;;;;;;;3.27;2.13;;;14.70;92.50;;;;;;5111301;28;20448;-82
2022/08/07 04:46:16;;;;;;;3.47;2.00;;;14.70;92.50;;;;;;5111097;28;20528;-82
2022/08/07 04:48:49;;;;;;;2.20;2.10;;;14.70;92.70;;;;;;5111308;28;20454;-82
2022/08/07 04:51:26;;;;;;;3.00;2.60;;;14.70;93.00;;;;;;5111681;28;20452;-82
2022/08/07 04:53:59;;;;;;;2.50;2.30;;;14.80;93.20;;;;;;5111566;28;20482;-82
2022/08/07 04:56:31;;;;;;;2.20;2.10;;;14.80;93.40;;;;;;5109854;28;20537;-82
2022/08/07 04:59:05;;;;;;;2.30;2.20;;;14.90;93.60;;;;;;5108679;28;20547;-82
2022/08/07 05:01:40;;;;;;;2.40;2.30;;;15.00;93.70;;;;;;5109680;28;20446;-82
2022/08/07 05:04:11;;;;;;;2.73;2.53;;;15.10;93.70;;;;;;5108536;28;20469;-82
2022/08/07 05:06:46;;;;;;;2.60;2.40;;;15.20;93.90;;;;;;5105457;28;20483;-82
2022/08/07 05:09:22;;;;;;;4.57;3.00;;;15.30;94.10;;;;;;5105132;28;20501;-82
2022/08/07 05:11:52;;;;;;;2.73;2.53;;;15.20;94.50;;;;;;5103397;28;20439;-82
2022/08/07 05:14:22;;;;;;;4.27;3.10;;;15.20;94.90;;;;;;5105711;28;20532;-82
2022/08/07 05:16:53;;;;;;;2.20;2.10;;;15.30;95.20;;;;;;5105130;28;20486;-82
2022/08/07 05:19:23;;;;;;;3.30;3.10;;;15.40;95.40;;;;;;5102033;28;20429;-82
2022/08/07 05:21:54;;;;;;;3.50;3.30;;;15.40;95.80;;;;;;5100803;28;20458;-82
2022/08/07 05:24:23;;;;;;;3.80;3.10;;;15.40;96.10;;;;;;5101047;28;20449;-82
2022/08/07 05:26:54;;;;;;;3.20;3.00;;;15.50;96.80;;;;;;5103416;28;20476;-82
2022/08/07 05:29:23;;;;;;;4.27;3.97;;;15.60;96.80;;;;;;5097473;28;20486;-82
2022/08/07 05:31:52;;;;;;;3.87;3.57;;;15.60;97.70;;;;;;5108683;28;20428;-81
2022/08/07 05:34:20;;;;;;;4.50;4.10;;;15.70;98.00;;;;;;5108486;28;20443;-82
2022/08/07 05:36:50;;;;;;;4.80;4.40;;;15.80;98.70;;;;;;5108698;28;20473;-82
2022/08/07 05:39:19;;;;;;;4.10;3.80;;;16.00;98.80;;;;;;5108066;28;20433;-82
2022/08/07 05:41:47;;;;;;;4.60;4.30;;;16.00;99.00;;;;;;5105369;28;20458;-82
2022/08/07 05:44:17;;;;;;;5.30;4.80;;;16.10;99.30;;;;;;5103217;28;20455;-82
2022/08/07 05:46:44;;;;;;;5.03;4.60;;;16.10;99.90;;;;;;5108992;28;20475;-82
2022/08/07 05:49:12;;;;;;;5.93;5.50;;;16.20;99.90;;;;;;5110282;28;20440;-82
2022/08/07 05:51:39;;;;;;;6.30;5.70;;;16.20;99.90;;;;;;5109848;28;20445;-82
2022/08/07 05:54:06;;;;;;;5.60;5.10;;;16.40;99.90;;;;;;5109234;28;20921;-82
2022/08/07 05:56:36;;;;;;;5.17;4.87;;;16.50;99.90;;;;;;5108443;28;20781;-82
2022/08/07 05:59:08;;;;;;;5.00;4.60;;;16.60;99.90;;;;;;5108656;28;21024;-82
2022/08/07 06:01:38;;;;;;;4.53;4.13;;;16.70;99.90;;;;;;5106828;28;20456;-82
2022/08/07 06:04:08;;;;;;;5.37;4.97;;;16.90;99.90;;;;;;5102824;28;20965;-82
2022/08/07 06:06:36;;;;;;;5.00;4.63;;;17.00;99.90;;;;;;5106431;28;20455;-82
2022/08/07 06:09:04;;;;;;;5.20;4.80;;;17.20;99.90;;;;;;5107481;28;20442;-82
2022/08/07 06:11:32;;;;;;;5.73;5.23;;;17.30;99.90;;;;;;5108786;28;20453;-82
2022/08/07 06:13:59;;;;;;;5.33;4.83;;;17.40;99.90;;;;;;5106658;28;20497;-82
2022/08/07 06:16:31;;;;;;;6.53;6.10;;;17.50;99.90;;;;;;5104229;28;20454;-82
2022/08/07 06:18:59;;;;;;;7.23;6.63;;;17.60;99.90;;;;;;5108591;28;20492;-82
2022/08/07 06:21:27;;;;;;;5.23;4.83;;;17.60;99.90;;;;;;5108529;28;20456;-82
2022/08/07 06:23:55;;;;;;;6.03;5.53;;;17.80;99.90;;;;;;5112982;28;20437;-82
2022/08/07 06:26:22;;;;;;;5.23;4.83;;;17.90;99.90;;;;;;5111669;28;20460;-82
2022/08/07 06:28:50;;;;;;;5.80;5.33;;;18.00;99.90;;;;;;5108278;28;20445;-82
2022/08/07 06:31:17;;;;;;;5.83;5.23;;;18.00;99.90;;;;;;5110925;28;20454;-82
2022/08/07 06:33:45;;;;;;;5.83;5.53;;;18.10;99.90;;;;;;5109834;28;20472;-82
2022/08/07 06:36:12;;;;;;;7.63;5.90;;;18.20;99.90;;;;;;5111472;28;20441;-82
2022/08/07 06:38:39;;;;;;;5.97;5.30;;;18.30;99.90;;;;;;5112381;28;20476;-82
2022/08/07 06:41:11;;;;;;;7.10;5.70;;;18.40;99.90;;;;;;5113949;28;20512;-82
2022/08/07 06:43:40;;;;;;;5.87;5.30;;;18.50;99.90;;;;;;5114081;28;20529;-82
2022/08/07 06:46:07;;;;;;;6.00;5.60;;;18.60;99.90;;;;;;5113434;28;20472;-82
2022/08/07 06:48:35;;;;;;;4.97;4.60;;;18.70;99.90;;;;;;5112088;28;20463;-82
2022/08/07 06:51:07;;;;;;;6.77;5.10;;;18.70;99.90;;;;;;5111482;28;20453;-82
2022/08/07 06:53:35;;;;;;;5.33;5.00;;;18.80;99.90;;;;;;5110722;28;20449;-82
2022/08/07 06:56:04;;;;;;;5.60;5.20;;;18.90;99.90;;;;;;5108973;28;20454;-82
2022/08/07 06:58:34;;;;;;;4.97;4.67;;;19.00;99.90;;;;;;5110705;28;20493;-82
2022/08/07 07:01:02;;;;;;;4.60;4.20;;;19.10;99.90;;;;;;5109194;28;20514;-82
2022/08/07 07:03:29;;;;;;;4.20;3.90;;;19.10;99.90;;;;;;5109853;28;20835;-82
2022/08/07 07:05:56;;;;;;;4.40;4.10;;;19.20;99.90;;;;;;5107375;28;20447;-82
2022/08/07 07:08:26;;;;;;;3.77;3.53;;;19.20;99.10;;;;;;5105675;28;20545;-82
2022/08/07 07:10:53;;;;;;;3.77;3.40;;;19.30;99.10;;;;;;5097137;28;20503;-80
2022/08/07 07:13:26;;;;;;;3.17;2.97;;;19.40;98.80;;;;;;5097904;28;20446;-81
2022/08/07 07:16:01;;;;;;;4.03;3.73;;;19.40;98.10;;;;;;5100963;28;20462;-80
2022/08/07 07:18:34;;;;;;;2.97;2.77;;;19.50;98.50;;;;;;5098233;28;20489;-81
2022/08/07 07:21:06;;;;;;;4.00;3.60;;;19.60;98.10;;;;;;5098635;28;20459;-81
2022/08/07 07:23:33;;;;;;;4.20;3.80;;;19.70;98.30;;;;;;5096962;28;20448;-81
2022/08/07 07:26:03;;;;;;;5.17;4.77;;;19.80;98.00;;;;;;5098254;28;20455;-81
2022/08/07 07:28:36;;;;;;;3.60;3.30;;;19.80;97.30;;;;;;5097136;28;20545;-81
2022/08/07 07:31:08;;;;;;;3.97;3.73;;;20.00;97.10;;;;;;5097196;28;20439;-82
2022/08/07 07:33:37;;;;;;;3.17;2.90;;;20.10;96.10;;;;;;5097655;28;20438;-82
2022/08/07 07:36:05;;;;;;;2.97;2.80;;;20.20;95.70;;;;;;5096591;28;20455;-81
2022/08/07 07:38:33;;;;;;;3.33;3.13;;;20.10;95.20;;;;;;5097289;28;20482;-81
2022/08/07 07:41:04;;;;;;;2.67;2.47;;;20.20;94.40;;;;;;5097817;28;20453;-81
2022/08/07 07:43:33;;;;;;;4.67;4.37;;;20.20;94.30;;;;;;5093522;28;20493;-81
2022/08/07 07:46:01;;;;;;;2.70;2.40;;;20.30;93.90;;;;;;5096932;28;20450;-80
2022/08/07 07:48:30;;;;;;;3.07;2.87;;;20.30;93.80;;;;;;5097830;28;20466;-81
2022/08/07 07:50:59;;;;;;;3.10;2.90;;;20.40;92.70;;;;;;5098078;28;20451;-81
2022/08/07 07:53:27;;;;;;;2.60;2.40;;;20.40;92.30;;;;;;5098477;28;20465;-82
2022/08/07 07:55:58;;;;;;;2.20;2.10;;;20.50;91.90;;;;;;5097341;28;20453;-84
2022/08/07 07:58:26;;;;;;;3.27;2.37;;;20.60;91.60;;;;;;5096720;28;20482;-83
2022/08/07 08:00:53;;;;;;;2.20;2.07;;;20.60;91.40;;;;;;5097934;28;20454;-83
2022/08/07 08:03:23;;;;;;;2.20;1.80;;;20.70;90.30;;;;;;5097966;28;20982;-81
2022/08/07 08:05:52;;;;;;;2.20;2.10;;;20.70;90.10;;;;;;5096913;28;20443;-81
2022/08/07 08:08:19;;;;;;;2.50;2.40;;;20.80;90.00;;;;;;5092514;23;20588;-78
2022/08/07 08:10:46;;;;;;;2.40;2.20;;;20.90;88.80;;;;;;5072614;28;20460;-78
2022/08/07 08:13:15;;;;;;;2.20;2.10;;;20.90;89.40;;;;;;5072740;28;20450;-79
2022/08/07 08:15:43;;;;;;;2.20;2.10;;;21.00;90.20;;;;;;5070306;28;20916;-78
2022/08/07 08:18:11;;;;;;;2.10;2.00;;;21.10;89.10;;;;;;5071445;28;20881;-78
2022/08/07 08:20:39;;;;;;;2.27;2.10;;;21.10;88.20;;;;;;5071956;28;20453;-77
2022/08/07 08:28:45;;;;;;;2.33;2.17;;;21.40;85.00;;;;;;5072341;28;20518;-78
2022/08/07 08:31:15;;;;;;;2.33;2.23;;;21.50;84.40;;;;;;5072728;28;20939;-78
2022/08/07 08:33:43;;;;;;;2.13;1.97;;;21.60;85.80;;;;;;5072017;28;20447;-78
2022/08/07 08:36:11;;;;;;;1.47;1.47;;;21.70;86.20;;;;;;5071624;28;20454;-79
2022/08/07 08:38:44;;;;;;;2.13;2.03;;;21.80;86.00;;;;;;5073473;28;20493;-79
2022/08/07 08:41:17;;;;;;;2.07;1.93;;;21.90;83.20;;;;;;5073440;28;20450;-79
2022/08/07 08:43:52;;;;;;;2.27;2.17;;;21.90;83.60;;;;;;5073102;28;20477;-79
2022/08/07 08:46:28;;;;;;;2.30;2.10;;;22.00;83.50;;;;;;5073549;28;20449;-79
2022/08/07 08:49:01;;;;;;;4.60;3.80;;;22.00;83.70;;;;;;5078262;28;20924;-80
2022/08/07 08:51:32;;;;;;;3.80;2.27;;;22.10;82.10;;;;;;5072384;28;20456;-77
2022/08/07 08:54:07;;;;;;;3.23;2.93;;;22.10;80.30;;;;;;5070462;28;20489;-78
2022/08/07 08:56:39;;;;;;;2.60;2.50;;;22.20;81.00;;;;;;5070386;28;20952;-77
2022/08/07 08:59:15;;;;;;;13.50;8.30;;;22.30;80.10;;;;;;5070908;28;20494;-78
2022/08/07 09:01:46;;;;;;;5.53;4.10;;;22.30;78.70;;;;;;5070465;28;20823;-78
2022/08/07 09:04:20;;;;;;;2.37;2.17;;;22.40;79.10;;;;;;5070216;28;20448;-78
2022/08/07 09:06:55;;;;;;;2.47;2.10;;;22.40;79.10;;;;;;5070541;28;20454;-78
2022/08/07 09:09:37;;;;;;;2.00;1.90;;;22.60;79.60;;;;;;5071025;28;20815;-78
2022/08/07 09:12:17;;;;;;;3.10;2.83;;;22.70;79.20;;;;;;5070370;28;20985;-78
2022/08/07 09:14:57;;;;;;;3.10;2.10;;;22.80;78.80;;;;;;5070962;28;20448;-78
2022/08/07 09:17:36;;;;;;;1.80;1.70;;;22.80;79.10;;;;;;5071423;28;20486;-78
2022/08/07 09:20:12;;;;;;;2.33;2.23;;;22.90;79.40;;;;;;5070201;28;20483;-78
2022/08/07 09:22:53;;;;;;;2.20;2.10;;;22.90;72.90;;;;;;5071091;28;20457;-77
2022/08/07 09:25:26;;;;;;;2.00;1.90;;;22.90;69.00;;;;;;5051406;28;20452;-78
2022/08/07 09:28:01;;;;;;;1.70;1.60;;;23.00;67.50;;;;;;5051489;28;20919;-78
2022/08/07 09:30:37;;;;;;;1.20;1.20;;;23.10;69.20;;;;;;5051340;28;20448;-79
2022/08/07 09:33:20;;;;;;;2.00;1.90;;;23.20;67.90;;;;;;5053643;28;20466;-79
2022/08/07 09:35:54;;;;;;;1.90;1.80;;;23.30;68.20;;;;;;5071950;28;20447;-78
2022/08/07 09:38:31;;;;;;;2.80;1.73;;;23.40;67.90;;;;;;5071699;28;20487;-78
2022/08/07 09:41:09;;;;;;;1.60;1.50;;;23.40;64.40;;;;;;5072101;28;20447;-78
2022/08/07 09:43:51;;;;;;;1.90;1.80;;;23.40;62.60;;;;;;5071891;28;20442;-79
2022/08/07 09:46:35;;;;;;;1.70;1.50;;;23.60;63.80;;;;;;5073081;28;20946;-78
2022/08/07 09:49:14;;;;;;;1.23;1.13;;;23.70;64.30;;;;;;5071355;28;20938;-78
2022/08/07 09:51:55;;;;;;;1.50;1.40;;;23.80;64.80;;;;;;5071863;28;20462;-77
2022/08/07 09:54:39;;;;;;;1.70;1.43;;;23.90;63.20;;;;;;5071843;28;20445;-78
2022/08/07 09:57:49;;;;;;;1.57;1.47;;;23.90;60.70;;;;;;5071940;28;20503;-78
2022/08/07 10:00:20;;;;;;;1.60;1.50;;;24.00;63.10;;;;;;5072353;28;20467;-79
2022/08/07 10:03:16;;;;;;;1.67;1.60;;;24.00;60.40;;;;;;5073704;28;20474;-78
2022/08/07 10:06:05;;;;;;;1.80;1.50;;;24.10;58.20;;;;;;5061621;28;20458;-78
2022/08/07 10:09:04;;;;;;;2.00;1.07;;;23.80;57.80;;;;;;5073364;28;20467;-78
2022/08/07 10:11:48;;;;;;;2.70;1.47;;;23.90;59.10;;;;;;5072583;28;20453;-76
2022/08/07 10:14:34;;;;;;;1.13;1.13;;;24.20;59.10;;;;;;5081367;28;20462;-76
2022/08/07 10:17:12;;;;;;;2.90;1.20;;;24.40;56.80;;;;;;5083678;28;20837;-83
2022/08/07 10:19:48;;;;;;;1.20;1.10;;;24.50;54.20;;;;;;5094508;28;20461;-80
2022/08/07 10:22:44;;;;;;;1.30;1.20;;;24.60;54.50;;;;;;5097753;28;20409;-82
2022/08/07 10:25:25;;;;;;;2.07;1.33;;;24.30;53.20;;;;;;5096354;28;20451;-78
2022/08/07 10:28:05;;;;;;;1.20;1.20;;;24.30;55.10;;;;;;5078901;28;20475;-76
2022/08/07 10:30:49;;;;;;;1.53;1.20;;;24.30;54.80;;;;;;5079464;28;20448;-76
2022/08/07 10:33:43;;;;;;;0.87;0.87;;;24.60;54.60;;;;;;5083153;28;20444;-76
2022/08/07 10:36:24;;;;;;;1.10;1.10;;;25.00;55.00;;;;;;5085521;28;20482;-76
2022/08/07 10:38:57;;;;;;;1.37;1.27;;;25.20;51.10;;;;;;5083684;28;20477;-76
2022/08/07 10:41:31;;;;;;;3.70;1.43;;;25.50;53.90;;;;;;5084059;28;20448;-76
2022/08/07 10:44:07;;;;;;;1.13;1.03;;;25.80;52.30;;;;;;5086377;28;20481;-76
2022/08/07 10:46:42;;;;;;;1.40;1.00;;;25.90;48.90;;;;;;5087052;28;20446;-75
2022/08/07 10:49:16;;;;;;;1.30;1.07;;;26.00;51.00;;;;;;5085499;28;20508;-77
2022/08/07 10:51:56;;;;;;;1.00;1.00;;;26.00;47.50;;;;;;5093145;28;20450;-78
2022/08/07 10:54:34;;;;;;;1.10;1.10;;;26.10;48.40;;;;;;5092447;28;20433;-79
2022/08/07 10:57:10;;;;;;;1.27;1.17;;;26.40;47.90;;;;;;5094649;28;20473;-78
2022/08/07 10:59:52;;;;;;;1.27;1.20;;;26.70;48.70;;;;;;5093123;28;20494;-81
2022/08/07 11:02:29;;;;;;;1.20;1.03;;;27.10;49.20;;;;;;5088475;28;20454;-79
2022/08/07 11:05:09;;;;;;;1.50;1.40;;;27.40;47.30;;;;;;5090436;28;20444;-79
2022/08/07 11:07:42;;;;;;;1.10;1.00;;;27.60;46.60;;;;;;5090279;28;20562;-79
2022/08/07 11:10:17;;;;;;;1.30;1.20;;;27.90;46.00;;;;;;5083597;28;20824;-80
2022/08/07 11:12:50;;;;;;;0.87;0.83;;;28.20;46.10;;;;;;5082726;28;20492;-79
2022/08/07 11:15:23;;;;;;;1.00;1.00;;;28.60;45.70;;;;;;5081271;28;20812;-80
2022/08/07 11:17:59;;;;;;;1.00;1.00;;;29.20;45.10;;;;;;5082346;28;20473;-80
2022/08/07 11:20:36;;;;;;;1.23;1.13;;;29.70;44.30;;;;;;5083623;28;20454;-79
2022/08/07 11:23:11;;;;;;;1.10;1.10;;;30.30;42.90;;;;;;5083944;28;20444;-80
2022/08/07 11:25:43;;;;;;;1.97;1.57;;;30.90;40.90;;;;;;5082810;28;20476;-79
2022/08/07 11:28:15;;;;;;;1.30;1.13;;;31.00;41.30;;;;;;5084508;28;20476;-79
2022/08/07 11:30:53;;;;;;;1.03;1.03;;;31.40;39.40;;;;;;5081989;28;20441;-79
2022/08/07 11:33:28;;;;;;;1.50;1.23;;;31.60;39.10;;;;;;5081712;28;20453;-79
2022/08/07 11:36:08;;;;;;;1.00;0.90;;;32.20;42.00;;;;;;5081690;28;20458;-79
2022/08/07 11:38:46;;;;;;;0.97;0.97;;;32.70;37.60;;;;;;5081848;28;20563;-79
2022/08/07 11:41:15;;;;;;;1.53;1.20;;;33.20;37.30;;;;;;5081678;28;20962;-79
2022/08/07 11:43:52;;;;;;;2.70;1.80;;;33.90;37.30;;;;;;5080658;28;20975;-80
2022/08/07 11:46:45;;;;;;;0.80;0.80;;;34.00;35.60;;;;;;5080801;28;20439;-79
2022/08/07 11:49:33;;;;;;;2.10;1.20;;;34.40;36.00;;;;;;5079309;28;20476;-79
2022/08/07 11:52:19;;;;;;;1.20;1.10;;;34.60;35.20;;;;;;5080821;28;20451;-79
2022/08/07 11:55:04;;;;;;;1.10;1.10;;;34.00;31.20;;;;;;5080923;28;21017;-79
2022/08/07 11:57:37;;;;;;;0.80;0.80;;;34.20;33.70;;;;;;5081190;28;20459;-79
2022/08/07 12:00:08;;;;;;;0.90;0.90;;;34.60;33.40;;;;;;5080946;28;20523;-80
2022/08/07 12:03:11;;;;;;;0.80;0.80;;;35.00;32.20;;;;;;5080665;28;20907;-79
2022/08/07 12:05:55;;;;;;;1.30;1.20;;;35.40;32.70;;;;;;5081000;28;20450;-81
2022/08/07 12:08:25;;;;;;;1.13;1.03;;;35.80;33.60;;;;;;5081061;28;20483;-79
2022/08/07 12:10:56;;;;;;;3.17;1.33;;;36.30;31.50;;;;;;5080945;28;20456;-80
2022/08/07 12:13:27;;;;;;;1.27;1.17;;;36.70;29.10;;;;;;5080616;28;20448;-79
2022/08/07 12:15:59;;;;;;;1.00;1.00;;;37.20;30.20;;;;;;5080617;28;20952;-79
2022/08/07 12:18:32;;;;;;;1.17;1.17;;;37.10;28.40;;;;;;5080221;28;20475;-80
2022/08/07 12:21:14;;;;;;;3.50;1.30;;;36.90;28.70;;;;;;5080428;28;20443;-80
2022/08/07 12:23:50;;;;;;;0.93;0.93;;;37.10;29.20;;;;;;5080047;28;20454;-82
2022/08/07 12:26:25;;;;;;;1.10;1.00;;;37.40;28.50;;;;;;5076709;28;20454;-81
2022/08/07 12:29:01;;;;;;;1.10;0.90;;;37.80;28.90;;;;;;5075536;28;20481;-82
2022/08/07 12:31:34;;;;;;;1.17;1.10;;;38.20;28.60;;;;;;5075214;28;20808;-83
2022/08/07 12:34:02;;;;;;;0.90;0.90;;;38.40;27.80;;;;;;5075766;28;20811;-82
2022/08/07 12:36:33;;;;;;;1.67;0.70;;;38.80;27.00;;;;;;5075204;28;20955;-82
2022/08/07 12:39:03;;;;;;;1.10;1.10;;;39.00;27.00;;;;;;5075315;28;20522;-82
2022/08/07 12:41:33;;;;;;;1.23;1.10;;;39.20;26.50;;;;;;5075360;28;20941;-83
2022/08/07 12:44:06;;;;;;;1.33;1.23;;;39.10;26.50;;;;;;5074767;28;20452;-82
2022/08/07 12:46:47;;;;;;;1.30;1.30;;;39.30;27.50;;;;;;5075621;28;20948;-81
2022/08/07 12:49:24;;;;;;;0.83;0.83;;;39.30;26.30;;;;;;5075173;28;20471;-82
2022/08/07 12:52:01;;;;;;;1.37;1.27;;;38.30;25.70;;;;;;5075639;28;20443;-82
2022/08/07 12:54:35;;;;;;;0.83;0.80;;;36.70;26.50;;;;;;5073391;28;20447;-81
2022/08/07 12:57:05;;;;;;;1.10;1.10;;;36.00;27.10;;;;;;5074848;28;20745;-82
2022/08/07 12:59:35;;;;;;;1.00;1.00;;;36.50;28.50;;;;;;5074851;28;20722;-82
2022/08/07 13:02:17;;;;;;;1.20;1.20;;;37.00;27.90;;;;;;5077793;28;20459;-82
2022/08/07 13:04:54;;;;;;;0.77;0.77;;;37.70;27.80;;;;;;5079824;28;20463;-82
2022/08/07 13:07:42;;;;;;;1.47;1.10;;;38.10;26.40;;;;;;5074662;28;20479;-83
2022/08/07 13:10:23;;;;;;;1.53;1.20;;;37.90;26.00;;;;;;5074917;28;20952;-83
2022/08/07 13:13:01;;;;;;;1.20;1.13;;;38.00;26.80;;;;;;5075406;28;20455;-82
2022/08/07 13:15:35;;;;;;;1.27;1.17;;;38.00;26.50;;;;;;5074870;28;20473;-82
2022/08/07 13:18:15;;;;;;;1.00;1.00;;;38.60;26.50;;;;;;5075395;28;20649;-83
2022/08/07 13:20:49;;;;;;;1.40;1.23;;;39.30;26.50;;;;;;5075854;28;20494;-82
2022/08/07 13:23:24;;;;;;;1.90;1.30;;;38.70;25.30;;;;;;5075017;28;20944;-83
2022/08/07 13:25:55;;;;;;;2.70;1.20;;;38.50;25.90;;;;;;5075072;28;20450;-82
2022/08/07 13:28:30;;;;;;;1.40;1.30;;;37.60;26.00;;;;;;5074543;28;20476;-82
2022/08/07 13:31:02;;;;;;;1.97;1.50;;;37.60;26.50;;;;;;5075425;28;20427;-82
2022/08/07 13:33:37;;;;;;;2.57;1.20;;;38.30;27.30;;;;;;5075150;28;20443;-82
2022/08/07 13:36:09;;;;;;;1.33;1.33;;;39.00;27.20;;;;;;5074930;28;20439;-82
2022/08/07 13:38:41;;;;;;;1.20;1.10;;;39.50;26.30;;;;;;5075791;28;20470;-83
2022/08/07 13:41:20;;;;;;;1.53;1.40;;;40.40;25.80;;;;;;5074971;28;20494;-82
2022/08/07 13:43:49;;;;;;;1.40;1.40;;;38.90;25.10;;;;;;5075487;28;20457;-83
2022/08/07 13:46:17;;;;;;;2.13;1.17;;;38.80;25.80;;;;;;5075475;28;20483;-82
2022/08/07 13:48:48;;;;;;;1.50;1.40;;;37.90;26.40;;;;;;5074740;28;20494;-82
2022/08/07 13:51:16;;;;;;;1.37;1.27;;;38.10;26.50;;;;;;5075305;28;20483;-82
2022/08/07 13:53:52;;;;;;;1.40;1.30;;;38.80;27.10;;;;;;5074691;28;20454;-83
2022/08/07 13:56:22;;;;;;;1.10;1.10;;;39.20;25.80;;;;;;5075435;28;20457;-83
2022/08/07 13:59:02;;;;;;;1.07;1.07;;;39.10;25.20;;;;;;5075494;28;20474;-83
2022/08/07 14:01:32;;;;;;;1.10;1.00;;;39.00;25.90;;;;;;5075127;28;20496;-82
2022/08/07 14:04:06;;;;;;;1.53;1.43;;;39.80;26.50;;;;;;5075084;28;20447;-83
2022/08/07 14:06:37;;;;;;;1.87;1.77;;;40.00;25.40;;;;;;5078689;28;20448;-83
2022/08/07 14:09:07;;;;;;;1.30;1.20;;;40.60;26.30;;;;;;5079842;28;20466;-83
2022/08/07 14:11:42;;;;;;;1.33;1.07;;;41.40;24.50;;;;;;5079228;28;20557;-83
2022/08/07 14:14:14;;;;;;;1.47;1.20;;;41.90;24.90;;;;;;5079159;28;20447;-82
2022/08/07 14:16:45;;;;;;;1.23;1.20;;;42.40;24.40;;;;;;5078768;28;20455;-83
2022/08/07 14:19:18;;;;;;;1.20;1.10;;;43.10;23.80;;;;;;5079235;28;20451;-81
2022/08/07 14:21:49;;;;;;;1.30;1.20;;;43.70;24.00;;;;;;5078525;28;20450;-82
2022/08/07 14:24:33;;;;;;;1.50;1.50;;;44.20;22.80;;;;;;5078494;28;20459;-82
2022/08/07 14:27:02;;;;;;;1.10;1.00;;;43.00;21.80;;;;;;5079821;28;20625;-82
2022/08/07 14:29:34;;;;;;;1.07;1.07;;;43.20;23.10;;;;;;5078716;28;20451;-82
2022/08/07 14:32:03;;;;;;;1.50;1.40;;;43.40;23.60;;;;;;5078971;28;20443;-82
2022/08/07 14:34:32;;;;;;;1.33;1.20;;;43.50;23.30;;;;;;5079522;28;20451;-83
2022/08/07 14:37:01;;;;;;;1.37;1.27;;;43.50;22.20;;;;;;5079277;28;20467;-81
2022/08/07 14:39:32;;;;;;;1.03;1.03;;;43.30;22.40;;;;;;5079103;28;20443;-82
2022/08/07 14:42:01;;;;;;;1.70;1.50;;;43.60;22.80;;;;;;5078343;28;20446;-82
2022/08/07 14:44:29;;;;;;;2.00;1.30;;;44.10;22.70;;;;;;5078997;28;20458;-82